createdAt,value
2022-10-28T00:01:14.644Z,7.70
2022-10-28T00:03:49.951Z,5.87
2022-10-28T00:06:22.851Z,5.67
2022-10-28T00:08:50.280Z,6.50
2022-10-28T00:11:20.160Z,5.03
2022-10-28T00:13:47.731Z,5.03
2022-10-28T00:16:20.976Z,4.50
2022-10-28T00:18:48.874Z,5.70
2022-10-28T00:21:21.713Z,5.40
2022-10-28T00:23:48.666Z,5.63
2022-10-28T00:26:18.978Z,4.83
2022-10-28T00:28:52.272Z,4.50
2022-10-28T00:31:21.339Z,4.10
2022-10-28T00:33:49.051Z,3.97
2022-10-28T00:36:19.596Z,4.67
2022-10-28T00:38:48.163Z,4.07
2022-10-28T00:41:19.236Z,4.00
2022-10-28T00:43:49.616Z,4.00
2022-10-28T00:46:37.976Z,3.30
2022-10-28T00:49:13.737Z,4.03
2022-10-28T00:51:41.647Z,5.20
2022-10-28T00:54:09.053Z,7.53
2022-10-28T00:56:40.395Z,9.57
2022-10-28T00:59:13.633Z,9.83
2022-10-28T01:01:40.749Z,14.73
2022-10-28T01:04:09.116Z,20.63
2022-10-28T01:06:36.310Z,17.63
2022-10-28T01:09:03.509Z,12.13
2022-10-28T01:11:33.177Z,8.53
2022-10-28T01:14:17.972Z,10.03
2022-10-28T01:16:59.632Z,10.73
2022-10-28T01:20:00.459Z,9.10
2022-10-28T01:22:39.193Z,7.40
2022-10-28T01:25:41.395Z,9.27
2022-10-28T01:29:01.468Z,9.27
2022-10-28T01:31:54.893Z,13.13
2022-10-28T01:34:37.301Z,11.40
2022-10-28T01:37:28.384Z,13.83
2022-10-28T01:40:05.460Z,13.43
2022-10-28T01:42:47.018Z,12.93
2022-10-28T01:45:30.731Z,14.30
2022-10-28T01:48:01.877Z,14.60
2022-10-28T01:50:36.172Z,14.10
2022-10-28T01:53:09.342Z,15.93
2022-10-28T01:55:40.208Z,10.77
2022-10-28T01:58:09.270Z,12.30
2022-10-28T02:00:37.802Z,12.53
2022-10-28T02:03:08.751Z,10.90
2022-10-28T02:05:41.578Z,10.97
2022-10-28T02:08:21.025Z,11.53
2022-10-28T02:10:54.131Z,11.20
2022-10-28T02:13:27.499Z,9.10
2022-10-28T02:16:26.771Z,8.87
2022-10-28T02:19:02.153Z,9.20
2022-10-28T02:22:04.767Z,8.33
2022-10-28T02:24:37.562Z,8.60
2022-10-28T02:27:28.735Z,8.10
2022-10-28T02:30:03.833Z,7.23
2022-10-28T02:32:35.791Z,5.93
2022-10-28T02:35:06.177Z,5.77
2022-10-28T02:37:35.694Z,6.20
2022-10-28T02:40:09.833Z,5.73
2022-10-28T02:43:04.493Z,4.77
2022-10-28T02:45:43.406Z,5.10
2022-10-28T02:48:19.474Z,4.27
2022-10-28T02:50:53.555Z,4.20
2022-10-28T02:53:29.036Z,4.27
2022-10-28T02:55:59.688Z,4.33
2022-10-28T02:58:26.828Z,4.10
2022-10-28T03:00:53.902Z,3.97
2022-10-28T03:03:20.958Z,3.50
2022-10-28T03:05:47.883Z,4.17
2022-10-28T03:08:14.827Z,3.47
2022-10-28T03:10:41.763Z,3.47
2022-10-28T03:13:08.742Z,4.10
2022-10-28T03:15:35.811Z,4.40
2022-10-28T03:18:02.836Z,4.13
2022-10-28T03:20:29.808Z,3.83
2022-10-28T03:22:57.008Z,3.47
2022-10-28T03:25:24.050Z,3.90
2022-10-28T03:27:51.055Z,4.20
2022-10-28T03:30:19.138Z,3.50
2022-10-28T03:32:46.084Z,3.33
2022-10-28T03:35:13.500Z,3.07
2022-10-28T03:37:44.059Z,3.20
2022-10-28T03:40:12.072Z,2.97
2022-10-28T03:42:41.713Z,3.33
2022-10-28T03:45:09.989Z,4.40
2022-10-28T03:47:37.296Z,3.90
2022-10-28T03:50:04.586Z,3.57
2022-10-28T03:52:31.660Z,3.40
2022-10-28T03:54:58.586Z,4.70
2022-10-28T03:57:25.531Z,4.47
2022-10-28T03:59:52.531Z,3.40
2022-10-28T04:02:19.556Z,3.50
2022-10-28T04:04:46.600Z,4.40
2022-10-28T04:07:13.607Z,4.23
2022-10-28T04:09:42.643Z,4.27
2022-10-28T04:12:11.116Z,4.20
2022-10-28T04:14:38.025Z,3.47
2022-10-28T04:17:04.965Z,3.50
2022-10-28T04:19:31.915Z,3.90
2022-10-28T04:21:58.887Z,3.17
2022-10-28T04:24:25.795Z,3.00
2022-10-28T04:26:52.740Z,3.90
2022-10-28T04:29:19.724Z,3.20
2022-10-28T04:31:48.752Z,3.67
2022-10-28T04:34:18.381Z,4.17
2022-10-28T04:36:45.363Z,3.00
2022-10-28T04:39:12.312Z,3.53
2022-10-28T04:41:40.690Z,3.87
2022-10-28T04:44:07.663Z,3.87
2022-10-28T04:46:34.701Z,4.27
2022-10-28T04:49:01.772Z,4.37
2022-10-28T04:51:28.762Z,4.47
2022-10-28T04:53:55.791Z,3.80
2022-10-28T04:56:22.752Z,3.90
2022-10-28T04:58:49.699Z,3.30
2022-10-28T05:01:16.807Z,3.93
2022-10-28T05:03:43.841Z,4.23
2022-10-28T05:06:10.782Z,5.50
2022-10-28T05:08:37.752Z,6.97
2022-10-28T05:11:04.825Z,4.20
2022-10-28T05:13:31.796Z,4.60
2022-10-28T05:15:58.756Z,3.13
2022-10-28T05:18:25.759Z,3.10
2022-10-28T05:20:55.014Z,2.77
2022-10-28T05:23:25.800Z,3.10
2022-10-28T05:25:55.624Z,3.47
2022-10-28T05:28:22.616Z,3.67
2022-10-28T05:30:49.803Z,3.50
2022-10-28T05:33:16.889Z,3.43
2022-10-28T05:35:43.882Z,3.10
2022-10-28T05:38:10.932Z,3.07
2022-10-28T05:40:37.872Z,3.53
2022-10-28T05:43:04.910Z,2.90
2022-10-28T05:45:31.990Z,3.28
2022-10-28T05:47:58.938Z,3.73
2022-10-28T05:50:26.358Z,3.13
2022-10-28T05:52:56.163Z,2.93
2022-10-28T05:55:25.494Z,2.80
2022-10-28T05:57:53.208Z,3.00
2022-10-28T06:00:22.641Z,3.23
2022-10-28T06:02:49.893Z,4.53
2022-10-28T06:05:18.111Z,4.53
2022-10-28T06:07:45.073Z,3.60
2022-10-28T06:10:12.171Z,3.20
2022-10-28T06:12:37.758Z,3.63
2022-10-28T06:15:05.195Z,4.70
2022-10-28T06:17:32.185Z,4.67
2022-10-28T06:19:59.142Z,4.70
2022-10-28T06:22:26.168Z,4.60
2022-10-28T06:24:53.123Z,4.37
2022-10-28T06:27:20.217Z,4.87
2022-10-28T06:29:47.168Z,4.30
2022-10-28T06:32:14.252Z,4.10
2022-10-28T06:34:41.225Z,4.93
2022-10-28T06:37:09.358Z,5.60
2022-10-28T06:39:39.310Z,3.70
2022-10-28T06:42:06.405Z,3.67
2022-10-28T06:44:33.432Z,3.37
2022-10-28T06:47:01.937Z,2.67
2022-10-28T06:49:29.458Z,2.30
2022-10-28T06:51:56.415Z,2.47
2022-10-28T06:54:23.573Z,2.63
2022-10-28T06:56:50.506Z,2.80
2022-10-28T06:59:17.574Z,2.38
2022-10-28T07:01:44.973Z,2.78
2022-10-28T07:04:13.346Z,2.97
2022-10-28T07:06:40.678Z,3.00
2022-10-28T07:09:07.913Z,3.22
2022-10-28T07:11:34.861Z,3.28
2022-10-28T07:14:01.858Z,3.33
2022-10-28T07:16:28.770Z,3.58
2022-10-28T07:18:55.774Z,2.80
2022-10-28T07:21:28.376Z,2.67
2022-10-28T07:23:56.654Z,3.30
2022-10-28T07:26:24.469Z,3.55
2022-10-28T07:28:51.541Z,3.75
2022-10-28T07:31:18.514Z,4.10
2022-10-28T07:33:45.453Z,3.88
2022-10-28T07:36:12.412Z,3.60
2022-10-28T07:38:39.473Z,4.15
2022-10-28T07:41:08.426Z,3.83
2022-10-28T07:43:38.856Z,3.42
2022-10-28T07:46:07.323Z,3.30
2022-10-28T07:48:38.114Z,3.10
2022-10-28T07:51:06.917Z,3.00
2022-10-28T07:53:34.525Z,3.08
2022-10-28T07:56:06.003Z,2.88
2022-10-28T07:58:33.114Z,2.83
2022-10-28T08:01:05.671Z,2.42
2022-10-28T08:03:38.662Z,2.63
2022-10-28T08:06:09.887Z,3.15
2022-10-28T08:08:37.710Z,2.67
2022-10-28T08:11:16.414Z,3.00
2022-10-28T08:13:43.631Z,2.83
2022-10-28T08:16:10.998Z,2.40
2022-10-28T08:18:39.246Z,2.55
2022-10-28T08:21:07.807Z,2.20
2022-10-28T08:23:35.385Z,2.30
2022-10-28T08:26:02.667Z,2.83
2022-10-28T08:28:29.817Z,2.83
2022-10-28T08:31:08.495Z,2.95
2022-10-28T08:33:42.401Z,3.03
2022-10-28T08:36:15.092Z,3.05
2022-10-28T08:38:46.290Z,2.53
2022-10-28T08:41:22.451Z,2.08
2022-10-28T08:46:58.614Z,2.00
2022-10-28T08:49:27.465Z,2.25
2022-10-28T08:52:00.937Z,1.70
2022-10-28T08:54:38.121Z,1.95
2022-10-28T08:57:17.783Z,2.33
2022-10-28T08:59:46.722Z,2.40
2022-10-28T09:02:24.295Z,1.83
2022-10-28T09:05:19.617Z,2.47
2022-10-28T09:07:46.910Z,2.33
2022-10-28T09:10:35.743Z,2.00
2022-10-28T09:13:33.093Z,2.17
2022-10-28T09:16:21.235Z,1.70
2022-10-28T09:18:53.219Z,1.73
2022-10-28T09:21:46.286Z,2.10
2022-10-28T09:24:20.267Z,1.90
2022-10-28T09:27:07.475Z,2.13
2022-10-28T09:29:48.601Z,1.67
2022-10-28T09:32:23.178Z,2.40
2022-10-28T09:34:58.166Z,1.77
2022-10-28T09:37:35.948Z,2.28
2022-10-28T09:40:17.266Z,2.03
2022-10-28T09:43:07.364Z,2.92
2022-10-28T09:45:40.280Z,1.92
2022-10-28T09:48:21.864Z,1.95
2022-10-28T09:50:54.549Z,1.90
2022-10-28T09:53:45.122Z,2.03
2022-10-28T09:56:12.362Z,1.48
2022-10-28T09:58:44.830Z,2.00
2022-10-28T10:01:12.750Z,1.90
2022-10-28T10:03:43.712Z,1.95
2022-10-28T10:06:27.999Z,1.38
2022-10-28T10:08:58.416Z,1.67
2022-10-28T10:11:41.201Z,2.17
2022-10-28T10:14:12.480Z,1.63
2022-10-28T10:16:55.395Z,1.65
2022-10-28T10:19:23.279Z,2.05
2022-10-28T10:21:55.603Z,1.42
2022-10-28T10:24:34.397Z,1.90
2022-10-28T10:27:32.838Z,1.52
2022-10-28T10:30:01.180Z,1.85
2022-10-28T10:32:33.247Z,1.58
2022-10-28T10:35:19.231Z,2.22
2022-10-28T10:37:48.180Z,1.60
2022-10-28T10:40:21.817Z,1.98
2022-10-28T10:43:09.747Z,1.58
2022-10-28T10:45:37.986Z,1.80
2022-10-28T10:48:14.019Z,1.70
2022-10-28T10:50:45.397Z,1.60
2022-10-28T10:53:49.220Z,1.90
2022-10-28T10:56:28.347Z,1.55
2022-10-28T10:59:01.499Z,1.80
2022-10-28T11:01:33.859Z,2.00
2022-10-28T11:04:04.833Z,1.88
2022-10-28T11:06:38.246Z,1.60
2022-10-28T11:09:17.844Z,1.83
2022-10-28T11:11:45.267Z,2.05
2022-10-28T11:14:15.068Z,2.08
2022-10-28T11:16:56.171Z,1.38
2022-10-28T11:19:44.525Z,1.77
2022-10-28T11:22:24.226Z,2.10
2022-10-28T11:25:17.456Z,1.85
2022-10-28T11:28:11.481Z,1.85
2022-10-28T11:31:00.201Z,1.92
2022-10-28T11:33:46.437Z,1.70
2022-10-28T11:36:33.094Z,1.52
2022-10-28T11:39:20.626Z,1.50
2022-10-28T11:42:26.638Z,1.88
2022-10-28T11:45:15.383Z,1.85
2022-10-28T11:48:18.229Z,1.70
2022-10-28T11:51:22.609Z,1.73
2022-10-28T11:54:07.473Z,2.28
2022-10-28T11:56:48.049Z,1.65
2022-10-28T11:59:51.671Z,1.60
2022-10-28T12:02:53.571Z,1.80
2022-10-28T12:05:43.250Z,1.85
2022-10-28T12:08:33.329Z,1.77
2022-10-28T12:11:10.596Z,1.65
2022-10-28T12:13:49.149Z,1.70
2022-10-28T12:16:39.835Z,1.65
2022-10-28T12:19:16.428Z,1.60
2022-10-28T12:22:00.178Z,1.70
2022-10-28T12:24:28.339Z,1.75
2022-10-28T12:27:00.420Z,1.35
2022-10-28T12:29:33.819Z,1.63
2022-10-28T12:32:09.225Z,1.65
2022-10-28T12:34:41.936Z,1.77
2022-10-28T12:37:14.991Z,1.27
2022-10-28T12:39:50.270Z,1.70
2022-10-28T12:42:23.554Z,1.42
2022-10-28T12:44:54.895Z,1.90
2022-10-28T12:47:34.411Z,1.42
2022-10-28T12:50:40.611Z,1.40
2022-10-28T12:53:22.774Z,1.52
2022-10-28T12:55:56.300Z,1.25
2022-10-28T12:58:51.409Z,1.30
2022-10-28T13:01:21.677Z,1.50
2022-10-28T13:03:52.720Z,1.40
2022-10-28T13:06:48.035Z,1.58
2022-10-28T13:09:39.776Z,1.65
2022-10-28T13:12:37.019Z,1.50
2022-10-28T13:15:41.529Z,1.80
2022-10-28T13:18:20.743Z,1.98
2022-10-28T13:21:21.206Z,1.58
2022-10-28T13:24:17.589Z,2.22
2022-10-28T13:26:45.652Z,1.67
2022-10-28T13:29:40.566Z,1.92
2022-10-28T13:32:23.804Z,1.80
2022-10-28T13:34:50.824Z,2.45
2022-10-28T13:37:21.225Z,1.88
2022-10-28T13:39:48.231Z,1.75
2022-10-28T13:42:15.558Z,2.15
2022-10-28T13:44:53.785Z,2.50
2022-10-28T13:47:33.107Z,2.00
2022-10-28T13:50:06.314Z,1.77
2022-10-28T13:52:36.808Z,2.30
2022-10-28T13:55:25.415Z,2.38
2022-10-28T13:58:00.944Z,2.63
2022-10-28T14:02:58.874Z,2.30
2022-10-28T14:05:33.260Z,2.20
2022-10-28T14:08:07.287Z,2.33
2022-10-28T14:10:41.382Z,2.60
2022-10-28T14:13:20.355Z,2.78
2022-10-28T14:15:48.604Z,3.22
2022-10-28T14:18:45.967Z,3.20
2022-10-28T14:21:04.505Z,2.10
2022-10-28T14:23:36.488Z,2.13
2022-10-28T14:26:05.309Z,2.17
2022-10-28T14:28:32.321Z,2.60
2022-10-28T14:31:08.720Z,2.20
2022-10-28T14:33:53.798Z,2.17
2022-10-28T14:36:20.695Z,2.60
2022-10-28T14:38:53.687Z,2.53
2022-10-28T14:41:33.058Z,2.20
2022-10-28T14:44:08.905Z,1.70
2022-10-28T14:46:50.065Z,2.13
2022-10-28T14:49:29.081Z,2.90
2022-10-28T14:51:58.549Z,2.20
2022-10-28T14:54:49.479Z,2.65
2022-10-28T14:57:22.285Z,3.45
2022-10-28T14:59:51.022Z,4.97
2022-10-28T15:02:30.980Z,2.97
2022-10-28T15:05:13.923Z,2.42
2022-10-28T15:07:42.093Z,2.33
2022-10-28T15:10:15.522Z,2.55
2022-10-28T15:12:45.662Z,2.63
2022-10-28T15:15:21.308Z,1.90
2022-10-28T15:17:49.467Z,2.20
2022-10-28T15:20:27.130Z,1.73
2022-10-28T15:23:10.174Z,1.60
2022-10-28T15:25:37.178Z,1.65
2022-10-28T15:28:04.372Z,1.20
2022-10-28T15:30:31.488Z,1.45
2022-10-28T15:33:19.883Z,1.48
2022-10-28T15:35:47.570Z,1.60
2022-10-28T15:38:33.769Z,1.42
2022-10-28T15:41:00.894Z,1.50
2022-10-28T15:43:30.710Z,1.75
2022-10-28T15:46:15.168Z,1.60
2022-10-28T15:48:42.617Z,1.95
2022-10-28T15:51:17.966Z,2.58
2022-10-28T15:53:46.484Z,1.60
2022-10-28T15:56:29.591Z,1.83
2022-10-28T15:58:59.505Z,7.75
2022-10-28T16:01:38.375Z,5.70
2022-10-28T16:04:25.677Z,6.57
2022-10-28T16:07:08.014Z,6.18
2022-10-28T16:09:45.532Z,2.10
2022-10-28T16:12:23.709Z,4.15
2022-10-28T16:15:01.974Z,4.07
2022-10-28T16:17:33.409Z,3.33
2022-10-28T16:20:17.312Z,3.65
2022-10-28T16:22:46.028Z,3.53
2022-10-28T16:25:20.155Z,4.40
2022-10-28T16:27:48.151Z,4.47
2022-10-28T16:30:15.838Z,5.15
2022-10-28T16:32:48.793Z,5.28
2022-10-28T16:35:20.969Z,2.95
2022-10-28T16:37:53.759Z,2.15
2022-10-28T16:43:16.400Z,1.90
2022-10-28T16:45:43.664Z,1.98
2022-10-28T16:48:16.274Z,3.50
2022-10-28T16:51:05.182Z,3.30
2022-10-28T16:53:32.771Z,4.00
2022-10-28T16:55:59.724Z,8.45
2022-10-28T16:58:28.476Z,6.28
2022-10-28T17:00:56.299Z,2.90
2022-10-28T17:03:23.453Z,3.25
2022-10-28T17:05:50.478Z,3.38
2022-10-28T17:08:30.744Z,3.08
2022-10-28T17:11:04.948Z,3.10
2022-10-28T17:13:31.995Z,3.35
2022-10-28T17:15:58.979Z,2.80
2022-10-28T17:18:26.222Z,3.10
2022-10-28T17:21:01.360Z,2.80
2022-10-28T17:23:29.399Z,3.17
2022-10-28T17:26:01.082Z,3.20
2022-10-28T17:28:28.077Z,3.28
2022-10-28T17:31:03.354Z,3.10
2022-10-28T17:33:30.344Z,2.67
2022-10-28T17:36:05.340Z,7.18
2022-10-28T17:38:32.452Z,3.67
2022-10-28T17:40:59.456Z,3.67
2022-10-28T17:43:26.602Z,3.42
2022-10-28T17:46:02.359Z,4.10
2022-10-28T17:48:29.776Z,4.05
2022-10-28T17:50:56.739Z,4.40
2022-10-28T17:53:23.796Z,4.70
2022-10-28T17:56:01.317Z,4.63
2022-10-28T17:58:28.601Z,4.18
2022-10-28T18:01:00.387Z,4.55
2022-10-28T18:03:28.056Z,4.25
2022-10-28T18:05:55.304Z,4.90
2022-10-28T18:08:22.972Z,4.80
2022-10-28T18:10:57.707Z,4.40
2022-10-28T18:13:33.328Z,4.47
2022-10-28T18:16:15.001Z,4.50
2022-10-28T18:18:42.947Z,4.27
2022-10-28T18:21:10.992Z,4.20
2022-10-28T18:23:38.425Z,3.38
2022-10-28T18:26:08.240Z,3.63
2022-10-28T18:28:36.587Z,2.42
2022-10-28T18:31:21.917Z,2.47
2022-10-28T18:33:49.297Z,2.90
2022-10-28T18:36:22.064Z,2.77
2022-10-28T18:38:49.585Z,2.67
2022-10-28T18:41:22.175Z,2.67
2022-10-28T18:43:56.163Z,2.27
2022-10-28T18:46:23.557Z,2.75
2022-10-28T18:48:50.628Z,2.58
2022-10-28T18:51:18.229Z,2.28
2022-10-28T18:53:47.405Z,2.03
2022-10-28T18:56:20.212Z,2.28
2022-10-28T18:58:51.732Z,2.17
2022-10-28T19:01:21.745Z,3.50
2022-10-28T19:03:55.586Z,3.23
2022-10-28T19:06:23.921Z,3.47
2022-10-28T19:08:55.843Z,3.60
2022-10-28T19:11:31.509Z,5.70
2022-10-28T19:14:04.030Z,6.10
2022-10-28T19:16:33.620Z,5.57
2022-10-28T19:19:02.460Z,6.60
2022-10-28T19:21:29.585Z,4.40
2022-10-28T19:23:56.955Z,4.23
2022-10-28T19:26:24.006Z,4.40
2022-10-28T19:28:51.895Z,4.38
2022-10-28T19:31:21.991Z,3.70
2022-10-28T19:33:49.109Z,3.00
2022-10-28T19:36:24.806Z,3.63
2022-10-28T19:38:53.867Z,3.72
2022-10-28T19:41:24.546Z,3.67
2022-10-28T19:43:58.150Z,3.78
2022-10-28T19:46:30.033Z,3.75
2022-10-28T19:48:59.047Z,4.20
2022-10-28T19:51:28.651Z,10.55
2022-10-28T19:54:00.609Z,5.57
2022-10-28T19:56:29.155Z,4.30
2022-10-28T19:58:58.346Z,4.30
2022-10-28T20:01:27.529Z,3.03
2022-10-28T20:03:55.641Z,3.07
2022-10-28T20:06:29.986Z,2.83
2022-10-28T20:08:56.923Z,2.20
2022-10-28T20:11:26.701Z,2.53
2022-10-28T20:13:58.620Z,1.90
2022-10-28T20:16:25.930Z,2.20
2022-10-28T20:18:56.993Z,2.10
2022-10-28T20:21:29.910Z,2.00
2022-10-28T20:23:57.891Z,1.60
2022-10-28T20:26:27.513Z,1.38
2022-10-28T20:28:54.486Z,2.03
2022-10-28T20:31:23.820Z,1.65
2022-10-28T20:33:52.979Z,1.50
2022-10-28T20:36:29.795Z,1.57
2022-10-28T20:39:02.055Z,1.42
2022-10-28T20:41:31.941Z,1.53
2022-10-28T20:43:59.297Z,1.43
2022-10-28T20:46:26.904Z,1.60
2022-10-28T20:48:54.398Z,1.73
2022-10-28T20:51:23.174Z,1.40
2022-10-28T20:53:50.513Z,1.50
2022-10-28T20:56:26.178Z,1.67
2022-10-28T20:58:55.021Z,2.00
2022-10-28T21:01:25.149Z,1.53
2022-10-28T21:03:57.270Z,1.60
2022-10-28T21:06:24.955Z,1.45
2022-10-28T21:08:53.642Z,1.50
2022-10-28T21:11:22.859Z,1.90
2022-10-28T21:13:54.823Z,2.10
2022-10-28T21:16:22.553Z,2.17
2022-10-28T21:18:49.947Z,1.90
2022-10-28T21:21:18.300Z,1.80
2022-10-28T21:23:45.368Z,2.00
2022-10-28T21:26:12.855Z,1.87
2022-10-28T21:28:42.951Z,1.70
2022-10-28T21:31:12.458Z,1.40
2022-10-28T21:33:40.244Z,1.40
2022-10-28T21:36:13.709Z,1.48
2022-10-28T21:38:41.120Z,1.50
2022-10-28T21:41:12.689Z,1.90
2022-10-28T21:43:41.527Z,2.40
2022-10-28T21:46:09.181Z,1.83
2022-10-28T21:48:36.969Z,2.07
2022-10-28T21:51:10.189Z,1.80
2022-10-28T21:53:42.295Z,2.53
2022-10-28T21:56:17.494Z,1.98
2022-10-28T21:58:45.565Z,1.80
2022-10-28T22:01:15.819Z,2.83
2022-10-28T22:03:42.890Z,2.20
2022-10-28T22:06:10.288Z,2.70
2022-10-28T22:08:37.362Z,2.33
2022-10-28T22:11:07.255Z,3.17
2022-10-28T22:13:34.800Z,3.15
2022-10-28T22:16:04.402Z,4.88
2022-10-28T22:18:33.342Z,7.93
2022-10-28T22:21:08.979Z,6.03
2022-10-28T22:23:36.825Z,9.17
2022-10-28T22:26:09.259Z,3.40
2022-10-28T22:28:36.244Z,3.30
2022-10-28T22:31:06.975Z,3.80
2022-10-28T22:33:34.363Z,4.23
2022-10-28T22:36:21.757Z,3.40
2022-10-28T22:38:49.270Z,3.33
2022-10-28T22:41:17.762Z,3.65
2022-10-28T22:43:46.727Z,2.90
2022-10-28T22:46:15.252Z,2.63
2022-10-28T22:48:42.297Z,2.33
2022-10-28T22:51:09.860Z,2.47
2022-10-28T22:53:40.144Z,2.77
2022-10-28T22:56:08.737Z,2.43
2022-10-28T22:58:35.754Z,2.57
2022-10-28T23:01:11.213Z,2.50
2022-10-28T23:03:43.876Z,2.60
2022-10-28T23:06:12.449Z,2.77
2022-10-28T23:08:40.849Z,2.30
2022-10-28T23:11:09.390Z,2.40
2022-10-28T23:16:11.346Z,2.60
2022-10-28T23:18:38.993Z,2.50
2022-10-28T23:21:25.689Z,2.40
2022-10-28T23:23:57.910Z,2.07
2022-10-28T23:26:25.913Z,2.13
2022-10-28T23:28:55.002Z,2.10
2022-10-28T23:31:23.193Z,2.00
2022-10-28T23:33:50.937Z,2.25
2022-10-28T23:36:18.021Z,2.00
2022-10-28T23:38:44.954Z,2.40
2022-10-28T23:41:16.269Z,2.40
2022-10-28T23:43:43.384Z,2.83
2022-10-28T23:46:11.118Z,2.40
2022-10-28T23:48:38.361Z,2.80
2022-10-28T23:51:05.510Z,2.50
2022-10-28T23:53:32.484Z,2.70
2022-10-28T23:55:59.459Z,3.17
2022-10-28T23:58:26.503Z,2.70
